Time;durP1;ratioP1;P1;durP2;ratioP2;P2;SDS_P1;SDS_P2;PMS_P1;PMS_P2;Temp;Humidity;BMP_temperature;BMP_pressure;BME280_temperature;BME280_humidity;BME280_pressure;Samples;Min_cycle;Max_cycle;Signal;HPM_P1;HPM_P2
2022/11/25 07:39:23;;;;;;;1.77;1.60;;;2.20;99.90;;;;;;5140904;27;20343;-80
2022/11/25 07:41:50;;;;;;;2.00;1.80;;;2.20;99.90;;;;;;5119815;28;20408;-82
2022/11/25 07:44:15;;;;;;;2.40;1.70;;;2.30;99.90;;;;;;5119656;28;20843;-80
2022/11/25 07:46:47;;;;;;;2.23;1.73;;;2.50;99.90;;;;;;5137803;28;20421;-82
2022/11/25 07:49:17;;;;;;;1.70;1.60;;;2.60;99.90;;;;;;5135992;28;20190;-80
2022/11/25 07:51:48;;;;;;;2.40;1.80;;;2.70;99.90;;;;;;5135908;28;20415;-82
2022/11/25 07:54:14;;;;;;;1.40;1.30;;;2.80;99.90;;;;;;5138968;27;20426;-81
2022/11/25 07:56:41;;;;;;;1.30;1.20;;;2.90;99.90;;;;;;5138422;27;20424;-80
2022/11/25 07:59:11;;;;;;;2.40;1.70;;;2.90;99.90;;;;;;5135496;28;20206;-80
2022/11/25 08:01:37;;;;;;;1.63;1.53;;;2.80;99.90;;;;;;5135603;28;20404;-80
2022/11/25 08:04:03;;;;;;;3.77;1.43;;;2.90;99.90;;;;;;5136040;27;20405;-80
2022/11/25 08:44:15;;;;;;;4.30;3.17;;;3.00;99.90;;;;;;5140514;27;20271;-80
2022/11/25 08:46:41;;;;;;;6.77;2.70;;;3.00;99.90;;;;;;5127500;28;20471;-80
2022/11/25 08:49:08;;;;;;;3.87;2.50;;;3.10;99.90;;;;;;5140864;27;20213;-80
2022/11/25 08:51:35;;;;;;;4.00;2.70;;;3.60;99.90;;;;;;5138870;28;20206;-80
2022/11/25 08:54:03;;;;;;;3.30;2.20;;;3.70;99.90;;;;;;5140103;28;20459;-80
2022/11/25 08:56:29;;;;;;;3.47;2.23;;;4.30;99.90;;;;;;5138550;28;20515;-81
2022/11/25 08:58:55;;;;;;;5.80;2.87;;;5.10;99.90;;;;;;5139991;28;20197;-81
2022/11/25 09:01:22;;;;;;;6.90;2.10;;;5.70;99.90;;;;;;5139055;28;20182;-81
2022/11/25 09:03:50;;;;;;;5.07;1.90;;;6.10;99.90;;;;;;5138789;28;20307;-81
2022/11/25 09:06:17;;;;;;;3.13;2.00;;;6.50;99.90;;;;;;5139110;28;20204;-81
2022/11/25 09:08:43;;;;;;;6.47;2.30;;;6.70;99.90;;;;;;5138332;28;20192;-81
2022/11/25 09:11:10;;;;;;;4.00;2.23;;;7.00;99.90;;;;;;5140060;28;20177;-81
2022/11/25 09:13:36;;;;;;;4.30;2.13;;;7.10;99.90;;;;;;5138450;28;20182;-81
2022/11/25 09:16:02;;;;;;;6.70;2.37;;;7.20;99.90;;;;;;5138674;28;20195;-81
2022/11/25 09:18:30;;;;;;;4.67;1.90;;;7.40;99.90;;;;;;5140595;28;20199;-81
2022/11/25 09:20:56;;;;;;;1.37;1.23;;;7.70;99.90;;;;;;5140326;28;20193;-81
2022/11/25 09:23:23;;;;;;;4.87;2.30;;;7.90;99.90;;;;;;5138651;28;20228;-81
2022/11/25 09:25:53;;;;;;;3.37;2.10;;;8.20;99.90;;;;;;5139017;28;20179;-81
2022/11/25 09:28:20;;;;;;;6.23;2.40;;;8.40;99.90;;;;;;5140086;28;20178;-82
2022/11/25 09:30:46;;;;;;;5.27;2.83;;;8.80;99.90;;;;;;5141290;28;20167;-81
2022/11/25 09:33:11;;;;;;;4.47;2.20;;;9.20;99.90;;;;;;5140648;28;20636;-81
2022/11/25 09:35:37;;;;;;;8.10;3.90;;;9.20;99.90;;;;;;5141523;28;20248;-81
2022/11/25 09:38:03;;;;;;;9.70;4.60;;;9.30;99.90;;;;;;5141361;28;20187;-82
2022/11/25 09:40:51;;;;;;;13.00;6.33;;;9.60;99.90;;;;;;5138991;28;20214;-81
2022/11/25 09:46:50;;;;;;;11.47;5.17;;;10.10;99.90;;;;;;5139313;28;20201;-81
2022/11/25 09:49:15;;;;;;;5.83;2.60;;;10.10;99.90;;;;;;5138494;28;20675;-82
2022/11/25 09:51:49;;;;;;;3.77;2.13;;;10.00;99.90;;;;;;5140381;28;20206;-82
2022/11/25 09:54:22;;;;;;;2.27;1.60;;;10.20;99.90;;;;;;5135022;28;20188;-81
2022/11/25 09:56:54;;;;;;;2.73;2.00;;;10.30;99.90;;;;;;5126240;28;20549;-81
2022/11/25 09:59:32;;;;;;;3.60;2.83;;;10.60;99.90;;;;;;5126650;28;20575;-81
2022/11/25 10:02:02;;;;;;;6.30;3.03;;;10.80;99.90;;;;;;5131219;28;20203;-81
2022/11/25 10:04:36;;;;;;;5.60;2.10;;;11.30;99.90;;;;;;5134125;28;20688;-81
2022/11/25 10:07:07;;;;;;;2.20;1.50;;;11.60;99.90;;;;;;5133604;28;20193;-81
2022/11/25 10:09:34;;;;;;;2.00;1.60;;;11.90;99.90;;;;;;5125775;28;20192;-82
2022/11/25 10:12:09;;;;;;;4.27;1.87;;;12.20;99.90;;;;;;5125976;28;20182;-82
2022/11/25 10:14:41;;;;;;;2.60;1.70;;;12.50;99.90;;;;;;5127486;28;20235;-80
2022/11/25 10:17:31;;;;;;;3.13;1.90;;;12.80;99.90;;;;;;5128085;28;20272;-81
2022/11/25 10:20:06;;;;;;;5.87;2.37;;;13.30;99.90;;;;;;5123035;28;20167;-81
2022/11/25 10:22:37;;;;;;;2.13;1.90;;;13.60;99.90;;;;;;5122166;28;20201;-82
2022/11/25 10:25:17;;;;;;;3.30;1.70;;;14.00;99.90;;;;;;5124222;28;20668;-81
2022/11/25 10:27:57;;;;;;;3.60;1.80;;;14.10;98.10;;;;;;5123201;28;20227;-81
2022/11/25 10:30:45;;;;;;;3.50;2.53;;;14.10;99.80;;;;;;5123985;28;20175;-82
2022/11/25 10:33:30;;;;;;;2.43;1.87;;;14.00;99.90;;;;;;5122364;28;20209;-82
2022/11/25 10:36:07;;;;;;;2.67;1.63;;;13.90;99.20;;;;;;5121461;28;20197;-82
2022/11/25 10:38:36;;;;;;;4.27;3.27;;;13.80;99.10;;;;;;5121388;28;20172;-81
2022/11/25 10:41:03;;;;;;;4.87;2.47;;;14.00;99.90;;;;;;5122458;28;20274;-81
2022/11/25 10:43:31;;;;;;;3.03;1.53;;;14.70;99.90;;;;;;5122422;28;20252;-81
2022/11/25 10:46:03;;;;;;;5.30;2.23;;;14.90;97.70;;;;;;5122325;28;20191;-81
2022/11/25 10:49:01;;;;;;;2.50;2.00;;;14.90;98.20;;;;;;5121931;28;20651;-82
2022/11/25 10:51:46;;;;;;;2.73;1.43;;;15.00;98.60;;;;;;5121932;28;20169;-81
2022/11/25 10:54:26;;;;;;;3.50;1.33;;;14.80;97.80;;;;;;5123049;28;20194;-82
2022/11/25 10:56:59;;;;;;;4.93;1.73;;;14.70;97.70;;;;;;5125586;28;20299;-81
2022/11/25 10:59:36;;;;;;;3.37;1.70;;;13.90;97.90;;;;;;5118518;28;20176;-81
2022/11/25 11:02:18;;;;;;;4.53;1.97;;;13.50;98.90;;;;;;5119416;28;20182;-80
2022/11/25 11:05:13;;;;;;;2.93;1.80;;;13.80;99.40;;;;;;5117794;28;20172;-81
2022/11/25 11:07:41;;;;;;;2.60;1.50;;;13.90;98.40;;;;;;5117253;28;20218;-81
2022/11/25 11:10:23;;;;;;;4.30;2.00;;;13.50;98.30;;;;;;5119379;28;20176;-81
2022/11/25 11:12:54;;;;;;;5.30;2.60;;;13.40;98.30;;;;;;5118580;28;20186;-81
2022/11/25 11:15:29;;;;;;;2.23;1.57;;;13.50;99.50;;;;;;5118811;28;20155;-81
2022/11/25 11:17:57;;;;;;;3.17;1.77;;;13.60;98.60;;;;;;5116498;28;20669;-80
2022/11/25 11:20:28;;;;;;;4.17;1.73;;;13.40;99.40;;;;;;5117443;28;20182;-81
2022/11/25 11:23:04;;;;;;;2.63;1.73;;;13.50;99.10;;;;;;5115176;28;20195;-81
2022/11/25 11:25:35;;;;;;;6.47;1.70;;;13.50;98.70;;;;;;5115776;28;20152;-81
2022/11/25 11:28:02;;;;;;;5.17;1.50;;;13.60;99.20;;;;;;5117122;28;20615;-81
2022/11/25 11:30:30;;;;;;;2.90;1.23;;;13.90;98.20;;;;;;5121507;28;20193;-81
2022/11/25 11:33:04;;;;;;;2.47;1.67;;;14.00;99.70;;;;;;5120449;28;20243;-81
2022/11/25 11:35:53;;;;;;;4.43;1.47;;;14.40;98.60;;;;;;5121779;28;20171;-81
2022/11/25 11:38:36;;;;;;;3.87;1.57;;;14.80;97.60;;;;;;5119704;28;20179;-83
2022/11/25 11:41:23;;;;;;;2.77;1.43;;;14.50;97.80;;;;;;5123463;28;20160;-81
2022/11/25 11:44:12;;;;;;;1.80;1.07;;;13.50;98.90;;;;;;5122566;28;20207;-81
2022/11/25 11:47:09;;;;;;;3.30;1.40;;;12.70;99.80;;;;;;5121230;28;20671;-81
2022/11/25 11:50:07;;;;;;;3.30;1.27;;;12.50;99.90;;;;;;5120411;28;20183;-81
2022/11/25 11:52:35;;;;;;;5.33;2.03;;;12.70;99.90;;;;;;5120606;28;20179;-82
2022/11/25 11:55:33;;;;;;;3.87;1.47;;;12.60;99.90;;;;;;5121681;28;20275;-80
2022/11/25 11:58:02;;;;;;;2.83;1.40;;;11.80;99.90;;;;;;5122583;28;20245;-80
2022/11/25 12:00:37;;;;;;;1.70;1.20;;;11.40;99.90;;;;;;5122000;28;20177;-81
2022/11/25 12:03:19;;;;;;;5.40;1.50;;;11.10;99.90;;;;;;5122217;28;20558;-81
2022/11/25 12:05:46;;;;;;;7.27;1.80;;;11.00;99.90;;;;;;5120800;28;20172;-81
2022/11/25 12:08:27;;;;;;;5.33;1.20;;;11.00;99.90;;;;;;5121903;28;20235;-81
2022/11/25 12:10:59;;;;;;;3.77;1.50;;;11.00;99.90;;;;;;5120848;28;20233;-81
2022/11/25 12:13:27;;;;;;;6.10;1.63;;;10.90;99.90;;;;;;5121995;28;20180;-82
2022/11/25 12:16:26;;;;;;;5.17;1.40;;;10.80;99.90;;;;;;5122081;28;20621;-83
2022/11/25 12:19:04;;;;;;;4.67;1.50;;;10.90;99.90;;;;;;5122535;28;20613;-81
2022/11/25 12:21:59;;;;;;;2.60;1.40;;;10.80;99.90;;;;;;5122732;28;20261;-81
2022/11/25 12:24:50;;;;;;;4.50;1.40;;;10.80;99.90;;;;;;5121239;28;20198;-81
2022/11/25 12:27:21;;;;;;;4.53;1.50;;;10.80;99.90;;;;;;5114545;28;20289;-81
2022/11/25 12:30:08;;;;;;;2.70;1.33;;;11.00;99.90;;;;;;5123380;28;20179;-81
2022/11/25 12:32:52;;;;;;;3.27;1.20;;;10.90;99.90;;;;;;5124166;28;20162;-81
2022/11/25 12:35:56;;;;;;;2.90;1.50;;;11.00;99.90;;;;;;5122679;28;20174;-80
2022/11/25 12:38:46;;;;;;;5.27;1.50;;;10.80;99.90;;;;;;5122886;28;20178;-81
2022/11/25 12:41:23;;;;;;;4.77;1.30;;;10.90;99.90;;;;;;5124410;28;20201;-81
2022/11/25 12:43:59;;;;;;;4.13;1.37;;;10.90;99.90;;;;;;5118944;28;20218;-81
2022/11/25 12:46:37;;;;;;;5.80;1.53;;;10.80;99.90;;;;;;5126673;28;20601;-81
2022/11/25 12:49:06;;;;;;;3.97;1.47;;;10.80;99.90;;;;;;5137035;28;20270;-80
2022/11/25 12:52:03;;;;;;;6.03;1.80;;;10.60;99.90;;;;;;5136766;28;20198;-80
2022/11/25 12:54:37;;;;;;;2.33;1.17;;;10.50;99.90;;;;;;5137684;28;20194;-80
2022/11/25 12:57:44;;;;;;;5.83;1.63;;;10.60;99.90;;;;;;5119701;28;20198;-81
2022/11/25 13:00:24;;;;;;;5.20;1.90;;;10.50;99.90;;;;;;5121894;28;20225;-81
2022/11/25 13:03:25;;;;;;;6.77;1.63;;;10.60;99.90;;;;;;5108144;28;20644;-81
2022/11/25 13:05:54;;;;;;;3.90;1.47;;;10.40;99.90;;;;;;5141494;28;20174;-81
2022/11/25 13:08:38;;;;;;;5.67;1.57;;;10.30;99.90;;;;;;5125522;28;20194;-81
2022/11/25 13:11:51;;;;;;;11.13;1.73;;;10.20;99.90;;;;;;5113421;28;20182;-82
2022/11/25 13:14:43;;;;;;;4.37;1.30;;;10.10;99.90;;;;;;5139066;27;20263;-81
2022/11/25 13:17:12;;;;;;;3.87;1.40;;;10.00;99.90;;;;;;5145180;28;20207;-80
2022/11/25 13:19:37;;;;;;;6.87;1.70;;;9.90;99.90;;;;;;5144871;28;20186;-81
2022/11/25 13:22:28;;;;;;;4.87;1.23;;;9.90;99.90;;;;;;5143214;28;20179;-81
2022/11/25 13:24:58;;;;;;;6.43;2.13;;;9.80;99.90;;;;;;5139206;28;20174;-80
2022/11/25 13:27:53;;;;;;;8.17;2.00;;;9.70;99.90;;;;;;5139663;28;20199;-81
2022/11/25 13:30:31;;;;;;;6.47;2.07;;;9.60;99.90;;;;;;5143415;27;20194;-81
2022/11/25 13:32:57;;;;;;;8.03;4.93;;;9.50;99.90;;;;;;5144584;27;20560;-81
2022/11/25 13:35:28;;;;;;;4.67;2.10;;;9.40;99.90;;;;;;5145319;27;20228;-80
2022/11/25 13:37:54;;;;;;;8.33;4.33;;;9.20;99.90;;;;;;5146816;27;20224;-81
2022/11/25 13:40:24;;;;;;;8.17;2.80;;;9.10;99.90;;;;;;5145605;27;20181;-80
2022/11/25 13:42:51;;;;;;;4.37;2.30;;;9.10;99.90;;;;;;5143378;27;20612;-80
2022/11/25 13:45:31;;;;;;;7.07;2.50;;;9.10;99.90;;;;;;5143136;27;20179;-80
2022/11/25 13:48:16;;;;;;;7.30;3.00;;;9.10;99.90;;;;;;5141719;27;20674;-81
2022/11/25 13:50:42;;;;;;;8.40;3.07;;;9.00;99.90;;;;;;5142318;27;20177;-81
2022/11/25 13:53:34;;;;;;;7.27;2.50;;;9.00;99.90;;;;;;5142479;27;20177;-80
2022/11/25 13:56:36;;;;;;;7.03;3.00;;;8.80;99.90;;;;;;5144160;27;20194;-81
2022/11/25 13:59:11;;;;;;;8.13;3.50;;;8.80;99.90;;;;;;5143249;27;20617;-81
2022/11/25 14:01:52;;;;;;;8.63;3.30;;;8.70;99.90;;;;;;5142241;27;20177;-81
2022/11/25 14:04:44;;;;;;;5.80;2.20;;;8.70;99.90;;;;;;5140101;27;20201;-80
2022/11/25 14:07:27;;;;;;;3.47;2.43;;;8.60;99.90;;;;;;5140673;27;20186;-80
2022/11/25 14:10:19;;;;;;;5.77;2.30;;;8.50;99.90;;;;;;5139292;27;20176;-81
2022/11/25 14:13:15;;;;;;;6.07;2.07;;;8.50;99.90;;;;;;5140414;27;20165;-80
2022/11/25 14:15:54;;;;;;;7.10;2.37;;;8.40;99.90;;;;;;5138295;27;20241;-80
2022/11/25 14:18:51;;;;;;;4.47;1.67;;;8.40;99.90;;;;;;5138611;27;20618;-80
2022/11/25 14:21:17;;;;;;;3.70;1.70;;;8.30;99.90;;;;;;5105884;27;20203;-80
2022/11/25 14:23:58;;;;;;;7.90;5.57;;;8.30;99.90;;;;;;5135894;27;20200;-80
2022/11/25 14:26:30;;;;;;;8.83;5.63;;;8.20;99.90;;;;;;5137064;27;20224;-80
2022/11/25 14:29:11;;;;;;;5.37;2.70;;;8.20;99.90;;;;;;5140851;27;20575;-80
2022/11/25 14:32:00;;;;;;;8.43;3.73;;;8.10;99.90;;;;;;5143713;27;20184;-79
2022/11/25 14:34:47;;;;;;;6.17;2.87;;;8.10;99.90;;;;;;5133435;27;20193;-80
2022/11/25 14:37:26;;;;;;;5.73;2.13;;;8.00;99.90;;;;;;5143833;27;20207;-80
2022/11/25 14:40:00;;;;;;;6.80;2.80;;;8.00;99.90;;;;;;5143559;27;20175;-80
2022/11/25 14:42:32;;;;;;;5.80;2.67;;;8.00;99.90;;;;;;5141739;27;20264;-80
2022/11/25 14:44:58;;;;;;;7.60;3.40;;;7.90;99.90;;;;;;5143996;27;20172;-80
2022/11/25 14:47:27;;;;;;;11.57;6.50;;;7.90;99.90;;;;;;5143482;27;20565;-80
2022/11/25 14:49:55;;;;;;;9.80;5.13;;;7.80;99.90;;;;;;5141927;27;20182;-80
2022/11/25 14:52:23;;;;;;;16.97;9.30;;;7.80;99.90;;;;;;5141652;27;20279;-80
2022/11/25 14:54:51;;;;;;;7.53;4.23;;;7.80;99.90;;;;;;5141091;27;20192;-80
2022/11/25 14:57:29;;;;;;;5.13;2.00;;;7.80;99.90;;;;;;5142870;27;20225;-80
2022/11/25 15:00:00;;;;;;;7.47;3.67;;;7.70;99.90;;;;;;5141804;27;20213;-80
2022/11/25 15:02:30;;;;;;;5.60;2.73;;;7.70;99.90;;;;;;5141272;27;20236;-80
2022/11/25 15:05:17;;;;;;;6.30;2.73;;;7.70;99.90;;;;;;5142518;27;20566;-80
2022/11/25 15:07:59;;;;;;;6.20;3.07;;;7.70;99.90;;;;;;5140673;27;20246;-80
2022/11/25 15:10:43;;;;;;;6.07;3.30;;;7.70;99.90;;;;;;5140477;27;20167;-80
2022/11/25 15:13:26;;;;;;;5.40;3.60;;;7.60;99.90;;;;;;5142151;27;20165;-80
2022/11/25 15:15:54;;;;;;;8.30;3.70;;;7.60;99.90;;;;;;5141547;27;20524;-81
2022/11/25 15:18:22;;;;;;;7.40;3.17;;;7.50;99.90;;;;;;5142107;27;20675;-80
2022/11/25 15:20:59;;;;;;;4.70;2.97;;;7.40;99.90;;;;;;5140293;27;20191;-80
2022/11/25 15:23:30;;;;;;;5.43;2.57;;;7.40;99.90;;;;;;5139967;27;20196;-81
2022/11/25 15:25:56;;;;;;;8.87;2.63;;;7.30;99.90;;;;;;5139492;27;20167;-81
2022/11/25 15:28:22;;;;;;;7.13;2.80;;;7.30;99.90;;;;;;5134942;27;20180;-80
2022/11/25 15:30:57;;;;;;;5.13;2.30;;;7.20;99.90;;;;;;5118985;28;20179;-79
2022/11/25 15:33:24;;;;;;;8.50;2.23;;;7.10;99.90;;;;;;5117910;28;20187;-80
2022/11/25 15:35:50;;;;;;;4.80;2.20;;;7.10;99.90;;;;;;5117766;28;20278;-79
2022/11/25 15:38:35;;;;;;;6.20;2.27;;;6.90;99.90;;;;;;5116747;28;20630;-78
2022/11/25 15:41:02;;;;;;;5.17;2.90;;;6.80;99.90;;;;;;5120863;28;20163;-78
2022/11/25 15:43:30;;;;;;;6.17;2.53;;;6.70;99.90;;;;;;5115878;28;20736;-78
2022/11/25 15:46:01;;;;;;;3.60;2.30;;;6.70;99.90;;;;;;5116392;28;20536;-79
2022/11/25 15:48:36;;;;;;;6.63;2.27;;;6.60;99.90;;;;;;5115096;28;20588;-79
2022/11/25 15:51:18;;;;;;;5.90;2.17;;;6.60;99.90;;;;;;5115588;28;20179;-79
2022/11/25 15:53:45;;;;;;;3.17;2.43;;;6.50;99.90;;;;;;5117069;28;20178;-80
2022/11/25 15:56:19;;;;;;;9.00;4.60;;;6.60;99.90;;;;;;5118958;28;20222;-81
2022/11/25 15:58:45;;;;;;;9.60;5.07;;;6.50;99.90;;;;;;5117748;28;20191;-82
2022/11/25 16:01:17;;;;;;;5.53;2.57;;;6.50;99.90;;;;;;5118563;28;20570;-81
2022/11/25 16:03:44;;;;;;;4.07;1.90;;;6.40;99.90;;;;;;5119434;28;20201;-81
2022/11/25 16:06:19;;;;;;;3.10;1.80;;;6.40;99.90;;;;;;5117606;28;20202;-79
2022/11/25 16:08:59;;;;;;;3.43;1.73;;;6.40;99.90;;;;;;5115594;28;20181;-80
2022/11/25 16:11:29;;;;;;;3.87;1.90;;;6.40;99.90;;;;;;5117264;28;20198;-80
2022/11/25 16:14:15;;;;;;;7.03;2.10;;;6.30;99.90;;;;;;5117981;28;20968;-80
2022/11/25 16:16:40;;;;;;;6.40;3.17;;;6.30;99.90;;;;;;5120941;27;20264;-82
2022/11/25 16:19:12;;;;;;;33.63;16.23;;;6.30;99.90;;;;;;5118975;28;20656;-82
2022/11/25 16:22:04;;;;;;;80.97;37.77;;;6.20;99.90;;;;;;5120371;28;20625;-81
2022/11/25 16:24:40;;;;;;;109.40;55.83;;;6.20;99.90;;;;;;5115566;28;20607;-82
2022/11/25 16:27:20;;;;;;;55.47;30.50;;;6.20;99.90;;;;;;5119771;28;20184;-79
2022/11/25 16:29:51;;;;;;;31.27;19.77;;;6.20;99.90;;;;;;5119272;28;20401;-80
2022/11/25 16:32:23;;;;;;;20.90;12.03;;;6.20;99.90;;;;;;5118952;28;20514;-81
2022/11/25 16:34:49;;;;;;;47.23;25.27;;;6.20;99.90;;;;;;5121443;28;20167;-81
2022/11/25 16:37:15;;;;;;;6.67;4.80;;;6.20;99.90;;;;;;5122704;28;20191;-81
2022/11/25 16:39:41;;;;;;;9.17;6.33;;;6.20;99.90;;;;;;5124022;28;20176;-81
2022/11/25 16:42:19;;;;;;;5.87;2.50;;;6.10;99.90;;;;;;5121207;28;20179;-81
2022/11/25 16:44:48;;;;;;;20.57;13.37;;;6.10;99.90;;;;;;5121273;28;20179;-81
2022/11/25 16:47:15;;;;;;;19.60;14.13;;;6.10;99.90;;;;;;5121288;28;20199;-80
2022/11/25 16:49:41;;;;;;;5.80;3.70;;;6.00;99.90;;;;;;5122744;28;20171;-80
2022/11/25 16:52:07;;;;;;;7.93;5.10;;;6.10;99.90;;;;;;5122286;28;20309;-80
2022/11/25 16:54:32;;;;;;;7.70;3.83;;;6.10;99.90;;;;;;5120438;28;20231;-81
2022/11/25 16:56:59;;;;;;;6.30;3.97;;;6.10;99.90;;;;;;5119317;28;20191;-80
2022/11/25 16:59:37;;;;;;;5.77;4.60;;;6.10;99.90;;;;;;5119567;28;20171;-81
2022/11/25 17:02:08;;;;;;;4.57;2.67;;;6.10;99.90;;;;;;5120582;28;20172;-82
2022/11/25 17:04:34;;;;;;;5.63;3.20;;;6.00;99.90;;;;;;5121240;28;20629;-81
2022/11/25 17:07:00;;;;;;;5.10;4.60;;;6.10;99.90;;;;;;5125509;28;20198;-80
2022/11/25 17:09:26;;;;;;;5.60;3.30;;;6.00;99.90;;;;;;5124482;28;20179;-81
2022/11/25 17:11:56;;;;;;;5.03;3.50;;;6.00;99.90;;;;;;5123504;28;20190;-80
2022/11/25 17:14:30;;;;;;;3.40;2.93;;;6.00;99.90;;;;;;5125201;28;20163;-80
2022/11/25 17:16:57;;;;;;;7.33;4.20;;;6.00;99.90;;;;;;5122366;28;20465;-80
2022/11/25 17:19:23;;;;;;;10.27;7.60;;;6.00;99.90;;;;;;5123148;28;20176;-80
2022/11/25 17:21:48;;;;;;;3.67;3.23;;;6.00;99.90;;;;;;5122868;28;20416;-80
2022/11/25 17:24:20;;;;;;;4.97;3.50;;;6.00;99.90;;;;;;5124316;28;20448;-80
2022/11/25 17:26:57;;;;;;;3.43;3.10;;;5.90;99.90;;;;;;5124794;28;20237;-80
